createdAt,value
2018-04-10T00:00:27.439Z,9.54
2018-04-10T00:02:54.935Z,9.46
2018-04-10T00:05:22.422Z,9.54
2018-04-10T00:07:49.944Z,9.70
2018-04-10T00:10:17.428Z,9.62
2018-04-10T00:12:44.878Z,9.54
2018-04-10T00:15:12.360Z,9.57
2018-04-10T00:17:39.814Z,9.49
2018-04-10T00:20:07.391Z,9.55
2018-04-10T00:22:34.843Z,9.60
2018-04-10T00:25:02.323Z,9.70
2018-04-10T00:27:29.775Z,9.75
2018-04-10T00:29:57.280Z,9.83
2018-04-10T00:32:24.726Z,9.81
2018-04-10T00:34:52.208Z,9.85
2018-04-10T00:37:19.736Z,9.83
2018-04-10T00:39:47.295Z,9.95
2018-04-10T00:42:16.871Z,9.87
2018-04-10T00:44:44.359Z,9.86
2018-04-10T00:47:11.893Z,9.81
2018-04-10T00:49:39.400Z,9.78
2018-04-10T00:52:06.915Z,9.80
2018-04-10T00:54:34.370Z,9.94
2018-04-10T00:57:01.848Z,9.95
2018-04-10T00:59:29.294Z,9.96
2018-04-10T01:01:56.796Z,9.92
2018-04-10T01:04:24.306Z,9.90
2018-04-10T01:06:51.787Z,9.93
2018-04-10T01:09:19.229Z,9.91
2018-04-10T01:11:46.791Z,10.00
2018-04-10T01:14:14.248Z,9.93
2018-04-10T01:16:41.739Z,9.97
2018-04-10T01:19:09.259Z,10.04
2018-04-10T01:21:36.730Z,9.99
2018-04-10T01:24:04.226Z,10.10
2018-04-10T01:26:32.595Z,10.01
2018-04-10T01:29:00.365Z,10.01
2018-04-10T01:31:27.810Z,9.83
2018-04-10T01:33:55.286Z,9.77
2018-04-10T01:36:22.738Z,9.85
2018-04-10T01:38:50.215Z,9.76
2018-04-10T01:41:17.667Z,9.66
2018-04-10T01:43:45.163Z,9.74
2018-04-10T01:46:12.610Z,9.65
2018-04-10T01:48:40.090Z,9.67
2018-04-10T01:51:07.543Z,9.52
2018-04-10T01:53:35.027Z,9.73
2018-04-10T01:56:02.474Z,9.77
2018-04-10T01:58:29.975Z,10.04
2018-04-10T02:00:57.479Z,9.96
2018-04-10T02:03:26.583Z,10.00
2018-04-10T02:05:54.182Z,9.87
2018-04-10T02:08:21.627Z,9.76
2018-04-10T02:13:40.299Z,9.69
2018-04-10T02:16:07.775Z,9.65
2018-04-10T02:18:35.217Z,9.62
2018-04-10T02:21:02.691Z,9.67
2018-04-10T02:23:30.144Z,9.55
2018-04-10T02:25:57.733Z,9.36
2018-04-10T02:28:25.208Z,9.29
2018-04-10T02:30:52.738Z,9.44
2018-04-10T02:33:20.198Z,9.31
2018-04-10T02:35:47.675Z,9.23
2018-04-10T02:38:16.119Z,9.33
2018-04-10T02:40:45.559Z,9.25
2018-04-10T02:43:13.037Z,9.20
2018-04-10T02:45:40.514Z,9.09
2018-04-10T02:48:07.968Z,9.00
2018-04-10T02:50:35.448Z,9.03
2018-04-10T02:53:02.900Z,8.91
2018-04-10T02:55:30.410Z,8.84
2018-04-10T02:57:57.858Z,8.89
2018-04-10T03:00:25.332Z,8.85
2018-04-10T03:02:52.811Z,8.98
2018-04-10T03:05:20.268Z,9.09
2018-04-10T03:07:47.842Z,9.08
2018-04-10T03:10:15.323Z,8.92
2018-04-10T03:12:42.811Z,8.87
2018-04-10T03:15:10.266Z,8.92
2018-04-10T03:17:38.736Z,8.99
2018-04-10T03:20:06.179Z,8.94
2018-04-10T03:22:33.650Z,8.87
2018-04-10T03:25:01.094Z,8.62
2018-04-10T03:27:28.572Z,8.74
2018-04-10T03:29:56.023Z,8.66
2018-04-10T03:32:23.503Z,8.59
2018-04-10T03:34:50.963Z,8.69
2018-04-10T03:37:18.448Z,8.90
2018-04-10T03:39:45.905Z,8.81
2018-04-10T03:42:13.408Z,8.82
2018-04-10T03:44:40.856Z,8.83
2018-04-10T03:47:08.307Z,8.60
2018-04-10T03:49:35.783Z,8.51
2018-04-10T03:52:03.232Z,8.62
2018-04-10T03:54:30.718Z,8.58
2018-04-10T03:56:58.172Z,8.63
2018-04-10T03:59:25.665Z,8.76
2018-04-10T04:01:53.132Z,8.48
2018-04-10T04:04:20.731Z,8.59
2018-04-10T04:06:49.219Z,8.55
2018-04-10T04:09:16.714Z,8.49
2018-04-10T04:11:44.159Z,8.51
2018-04-10T04:14:11.639Z,8.51
2018-04-10T04:16:50.906Z,8.48
2018-04-10T04:19:30.185Z,8.50
2018-04-10T04:22:11.331Z,8.37
2018-04-10T04:24:38.815Z,8.41
2018-04-10T04:27:06.368Z,8.39
2018-04-10T04:29:33.861Z,8.55
2018-04-10T04:32:01.323Z,8.48
2018-04-10T04:34:28.819Z,8.52
2018-04-10T04:36:56.291Z,8.64
2018-04-10T04:39:23.743Z,8.66
2018-04-10T04:41:51.231Z,8.60
2018-04-10T04:44:18.753Z,8.61
2018-04-10T04:46:46.317Z,8.73
2018-04-10T04:49:13.775Z,8.77
2018-04-10T04:51:41.329Z,8.64
2018-04-10T04:54:09.775Z,8.64
2018-04-10T04:56:37.368Z,8.83
2018-04-10T04:59:04.823Z,8.80
2018-04-10T05:01:33.293Z,8.70
2018-04-10T05:04:00.742Z,8.59
2018-04-10T05:06:28.214Z,8.72
2018-04-10T05:08:55.664Z,8.78
2018-04-10T05:11:23.114Z,8.98
2018-04-10T05:13:50.590Z,9.10
2018-04-10T05:16:18.037Z,9.08
2018-04-10T05:18:45.511Z,9.07
2018-04-10T05:21:13.048Z,9.28
2018-04-10T05:23:40.524Z,9.29
2018-04-10T05:26:07.974Z,9.37
2018-04-10T05:28:35.522Z,9.36
2018-04-10T05:31:02.966Z,9.15
2018-04-10T05:33:30.443Z,9.09
2018-04-10T05:35:57.897Z,9.39
2018-04-10T05:38:25.384Z,9.26
2018-04-10T05:40:53.847Z,9.34
2018-04-10T05:43:23.360Z,9.05
2018-04-10T05:45:50.811Z,9.12
2018-04-10T05:48:18.362Z,9.35
2018-04-10T05:50:45.846Z,9.14
2018-04-10T05:53:13.300Z,9.12
2018-04-10T05:55:40.835Z,9.12
2018-04-10T05:58:08.387Z,9.33
2018-04-10T06:00:35.865Z,9.36
2018-04-10T06:03:03.398Z,9.32
2018-04-10T06:05:30.886Z,9.47
2018-04-10T06:07:58.343Z,9.40
2018-04-10T06:10:25.818Z,9.54
2018-04-10T06:12:53.263Z,9.43
2018-04-10T06:15:20.711Z,9.52
2018-04-10T06:17:48.207Z,9.74
2018-04-10T06:20:15.668Z,9.82
2018-04-10T06:22:43.171Z,9.88
2018-04-10T06:25:10.622Z,9.82
2018-04-10T06:27:38.106Z,10.15
2018-04-10T06:30:05.588Z,10.10
2018-04-10T06:32:33.084Z,10.19
2018-04-10T06:35:00.542Z,10.21
2018-04-10T06:37:32.313Z,10.22
2018-04-10T06:39:59.774Z,10.41
2018-04-10T06:42:27.272Z,10.43
2018-04-10T06:44:56.683Z,10.34
2018-04-10T06:47:24.163Z,10.57
2018-04-10T06:49:51.620Z,10.79
2018-04-10T06:52:19.108Z,11.26
2018-04-10T06:54:46.562Z,10.68
2018-04-10T06:57:14.044Z,10.73
2018-04-10T06:59:45.074Z,10.76
2018-04-10T07:02:12.527Z,10.68
2018-04-10T07:04:40.988Z,10.88
2018-04-10T07:07:11.672Z,11.00
2018-04-10T07:09:39.162Z,11.03
2018-04-10T07:12:08.548Z,10.80
2018-04-10T07:14:37.941Z,10.93
2018-04-10T07:17:09.639Z,10.95
2018-04-10T07:19:37.122Z,11.04
2018-04-10T07:22:05.624Z,10.91
2018-04-10T07:24:36.311Z,11.23
2018-04-10T07:27:03.767Z,11.45
2018-04-10T07:29:32.348Z,11.18
2018-04-10T07:31:59.802Z,11.37
2018-04-10T07:34:27.351Z,11.31
2018-04-10T07:36:54.826Z,11.57
2018-04-10T07:39:24.316Z,11.92
2018-04-10T07:41:51.772Z,11.78
2018-04-10T07:44:19.339Z,12.01
2018-04-10T07:46:46.818Z,11.54
2018-04-10T07:49:14.282Z,11.63
2018-04-10T07:51:41.768Z,11.83
2018-04-10T07:54:10.155Z,11.48
2018-04-10T07:56:37.643Z,11.46
2018-04-10T07:59:05.107Z,11.41
2018-04-10T08:01:33.583Z,11.24
2018-04-10T08:04:01.040Z,11.32
2018-04-10T08:06:28.520Z,11.22
2018-04-10T08:08:57.972Z,11.01
2018-04-10T08:11:25.483Z,10.70
2018-04-10T08:13:52.955Z,10.68
2018-04-10T08:16:20.448Z,10.46
2018-04-10T08:18:47.923Z,10.49
2018-04-10T08:21:15.493Z,10.61
2018-04-10T08:23:42.951Z,10.36
2018-04-10T08:26:10.492Z,10.08
2018-04-10T08:28:37.935Z,10.17
2018-04-10T08:31:05.383Z,10.00
2018-04-10T08:33:33.797Z,10.23
2018-04-10T08:36:01.259Z,10.19
2018-04-10T08:38:28.741Z,10.25
2018-04-10T08:40:56.186Z,10.23
2018-04-10T08:43:23.658Z,9.78
2018-04-10T08:45:51.190Z,10.08
2018-04-10T08:48:20.591Z,9.83
2018-04-10T08:50:48.059Z,9.68
2018-04-10T08:53:15.604Z,9.48
2018-04-10T08:55:43.059Z,10.01
2018-04-10T08:58:11.548Z,10.32
2018-04-10T09:00:39.095Z,10.39
2018-04-10T09:03:06.584Z,10.04
2018-04-10T09:05:34.037Z,9.64
2018-04-10T09:08:01.531Z,9.69
2018-04-10T09:10:30.940Z,9.24
2018-04-10T09:12:58.401Z,9.21
2018-04-10T09:15:25.883Z,9.60
2018-04-10T09:17:53.343Z,9.68
2018-04-10T09:20:25.778Z,10.15
2018-04-10T09:22:53.235Z,9.92
2018-04-10T09:25:20.735Z,9.88
2018-04-10T09:27:48.183Z,10.59
2018-04-10T09:30:15.668Z,10.57
2018-04-10T09:32:43.164Z,10.95
2018-04-10T09:35:10.648Z,10.71
2018-04-10T09:37:38.107Z,10.96
2018-04-10T09:40:05.595Z,10.41
2018-04-10T09:42:33.055Z,10.52
2018-04-10T09:45:00.559Z,10.76
2018-04-10T09:47:28.016Z,10.47
2018-04-10T09:49:55.526Z,10.95
2018-04-10T09:52:22.981Z,11.16
2018-04-10T09:54:50.425Z,10.75
2018-04-10T09:57:17.904Z,10.80
2018-04-10T09:59:45.367Z,11.01
2018-04-10T10:02:12.859Z,10.49
2018-04-10T10:04:40.317Z,10.76
2018-04-10T10:07:07.808Z,9.84
2018-04-10T10:09:35.263Z,9.87
2018-04-10T10:12:02.756Z,10.24
2018-04-10T10:14:30.212Z,10.02
2018-04-10T10:16:57.702Z,10.21
2018-04-10T10:19:25.152Z,10.29
2018-04-10T10:21:55.987Z,10.81
2018-04-10T10:24:23.456Z,10.80
2018-04-10T10:26:50.944Z,11.14
2018-04-10T10:29:18.408Z,10.62
2018-04-10T10:31:51.039Z,10.73
2018-04-10T10:34:18.491Z,9.92
2018-04-10T10:36:46.909Z,9.70
2018-04-10T10:39:14.367Z,10.27
2018-04-10T10:41:41.818Z,10.75
2018-04-10T10:44:09.374Z,10.37
2018-04-10T10:46:36.835Z,9.79
2018-04-10T10:49:04.341Z,9.65
2018-04-10T10:51:31.813Z,9.56
2018-04-10T10:54:00.234Z,9.35
2018-04-10T10:56:32.665Z,9.15
2018-04-10T10:59:00.183Z,9.12
2018-04-10T11:01:27.639Z,8.42
2018-04-10T11:03:55.124Z,8.45
2018-04-10T11:06:22.585Z,7.79
2018-04-10T11:08:50.080Z,7.87
2018-04-10T11:11:17.538Z,7.93
2018-04-10T11:13:45.028Z,8.26
2018-04-10T11:16:12.487Z,8.33
2018-04-10T11:18:39.976Z,8.35
2018-04-10T11:21:07.431Z,8.48
2018-04-10T11:23:36.941Z,8.55
2018-04-10T11:26:04.407Z,9.09
2018-04-10T11:28:31.895Z,9.05
2018-04-10T11:30:59.356Z,9.47
2018-04-10T11:33:26.849Z,8.84
2018-04-10T11:35:55.293Z,8.68
2018-04-10T11:38:22.751Z,8.91
2018-04-10T11:40:52.360Z,8.98
2018-04-10T11:43:19.816Z,8.31
2018-04-10T11:45:47.303Z,8.48
2018-04-10T11:48:14.768Z,8.60
2018-04-10T11:50:42.261Z,9.23
2018-04-10T11:53:09.736Z,9.32
2018-04-10T11:55:37.239Z,8.38
2018-04-10T11:58:06.601Z,8.27
2018-04-10T12:00:34.091Z,8.07
2018-04-10T12:03:01.567Z,8.48
2018-04-10T12:05:29.062Z,8.25
2018-04-10T12:07:56.543Z,8.36
2018-04-10T12:10:24.415Z,8.35
2018-04-10T12:12:51.887Z,8.49
2018-04-10T12:15:20.331Z,8.79
2018-04-10T12:17:47.817Z,8.48
2018-04-10T12:20:15.271Z,8.21
2018-04-10T12:22:43.659Z,7.72
2018-04-10T12:25:14.148Z,7.80
2018-04-10T12:27:41.630Z,7.85
2018-04-10T12:30:09.090Z,8.06
2018-04-10T12:32:37.553Z,7.97
2018-04-10T12:35:05.011Z,8.34
2018-04-10T12:37:32.495Z,8.02
2018-04-10T12:40:00.027Z,7.70
2018-04-10T12:42:27.514Z,8.15
2018-04-10T12:44:55.936Z,8.25
2018-04-10T12:47:23.440Z,8.15
2018-04-10T12:49:50.901Z,7.77
2018-04-10T12:52:18.408Z,7.92
2018-04-10T12:54:45.875Z,7.90
2018-04-10T12:57:13.383Z,7.37
2018-04-10T12:59:40.834Z,7.55
2018-04-10T13:02:08.323Z,7.62
2018-04-10T13:04:37.738Z,7.87
2018-04-10T13:07:06.195Z,7.89
2018-04-10T13:09:34.613Z,7.53
2018-04-10T13:12:02.071Z,7.58
2018-04-10T13:14:29.597Z,7.42
2018-04-10T13:16:57.060Z,7.65
2018-04-10T13:19:24.560Z,7.38
2018-04-10T13:21:52.021Z,7.72
2018-04-10T13:24:19.507Z,7.21
2018-04-10T13:26:46.958Z,7.21
2018-04-10T13:29:14.475Z,7.46
2018-04-10T13:31:41.936Z,8.01
2018-04-10T13:34:09.439Z,7.78
2018-04-10T13:36:36.930Z,7.77
2018-04-10T13:39:04.396Z,7.38
2018-04-10T13:41:31.898Z,7.31
2018-04-10T13:44:01.147Z,7.46
2018-04-10T13:46:28.697Z,7.34
2018-04-10T13:48:56.146Z,7.52
2018-04-10T13:51:23.625Z,7.36
2018-04-10T13:53:52.031Z,7.21
2018-04-10T13:56:19.511Z,7.39
2018-04-10T13:58:47.019Z,7.50
2018-04-10T14:01:14.506Z,7.57
2018-04-10T14:03:41.955Z,7.47
2018-04-10T14:06:09.443Z,7.17
2018-04-10T14:08:36.902Z,7.31
2018-04-10T14:11:04.390Z,7.34
2018-04-10T14:13:31.847Z,7.26
2018-04-10T14:15:59.334Z,7.20
2018-04-10T14:18:27.787Z,7.19
2018-04-10T14:20:55.275Z,7.13
2018-04-10T14:23:22.731Z,7.12
2018-04-10T14:25:50.395Z,7.26
2018-04-10T14:28:17.859Z,7.26
2018-04-10T14:30:45.318Z,6.83
2018-04-10T14:33:13.791Z,6.81
2018-04-10T14:35:41.446Z,6.88
2018-04-10T14:38:08.935Z,6.74
2018-04-10T14:40:36.387Z,6.88
2018-04-10T14:43:03.867Z,6.84
2018-04-10T14:45:32.291Z,6.81
2018-04-10T14:47:59.769Z,6.94
2018-04-10T14:50:27.222Z,6.91
2018-04-10T14:52:54.700Z,6.85
2018-04-10T14:55:22.164Z,6.62
2018-04-10T14:57:50.625Z,7.03
2018-04-10T15:00:18.079Z,6.63
2018-04-10T15:02:45.567Z,6.40
2018-04-10T15:05:13.024Z,6.45
2018-04-10T15:07:40.516Z,6.52
2018-04-10T15:10:08.040Z,6.45
2018-04-10T15:12:35.533Z,6.47
2018-04-10T15:15:03.009Z,6.33
2018-04-10T15:17:30.497Z,6.34
2018-04-10T15:19:57.942Z,6.33
2018-04-10T15:22:25.426Z,6.57
2018-04-10T15:24:52.890Z,6.49
2018-04-10T15:27:21.278Z,6.37
2018-04-10T15:29:48.763Z,6.13
2018-04-10T16:54:13.299Z,5.26
2018-04-10T16:56:40.799Z,5.39
2018-04-10T16:59:08.256Z,5.34
2018-04-10T17:01:35.739Z,5.37
2018-04-10T17:04:03.199Z,5.29
2018-04-10T17:06:30.687Z,5.29
2018-04-10T17:08:58.145Z,5.41
2018-04-10T17:11:26.614Z,5.31
2018-04-10T17:13:54.055Z,5.26
2018-04-10T17:16:22.552Z,5.25
2018-04-10T17:18:50.012Z,5.33
2018-04-10T17:21:17.493Z,5.22
2018-04-10T17:23:44.952Z,5.30
2018-04-10T17:26:12.439Z,5.41
2018-04-10T17:28:39.887Z,5.43
2018-04-10T17:31:07.384Z,5.39
2018-04-10T17:33:34.834Z,5.14
2018-04-10T17:36:02.295Z,5.14
2018-04-10T17:38:29.774Z,5.23
2018-04-10T17:40:57.257Z,5.12
2018-04-10T17:43:24.754Z,5.28
2018-04-10T17:45:52.226Z,5.12
2018-04-10T17:48:19.703Z,5.21
2018-04-10T17:50:51.023Z,5.22
2018-04-10T17:53:19.442Z,5.25
2018-04-10T17:55:46.907Z,5.10
2018-04-10T17:58:14.428Z,5.16
2018-04-10T18:00:43.800Z,5.13
2018-04-10T18:03:12.218Z,5.10
2018-04-10T18:05:41.684Z,5.04
2018-04-10T18:08:09.169Z,5.12
2018-04-10T18:10:38.565Z,5.15
2018-04-10T18:13:09.550Z,5.28
2018-04-10T18:15:37.066Z,5.14
2018-04-10T18:18:04.567Z,5.19
2018-04-10T18:20:32.024Z,5.09
2018-04-10T18:23:00.641Z,5.34
2018-04-10T18:25:28.115Z,5.22
2018-04-10T18:27:55.632Z,5.29
2018-04-10T18:30:23.644Z,5.31
2018-04-10T18:32:52.626Z,5.31
2018-04-10T18:35:21.313Z,5.24
2018-04-10T18:37:48.781Z,5.27
2018-04-10T18:40:16.259Z,5.29
2018-04-10T18:42:43.712Z,5.32
2018-04-10T18:45:11.191Z,5.17
2018-04-10T18:47:38.664Z,5.27
2018-04-10T18:50:06.151Z,5.38
2018-04-10T18:52:33.600Z,5.32
2018-04-10T18:55:01.092Z,5.81
2018-04-10T18:57:29.518Z,6.03
2018-04-10T18:59:57.004Z,6.12
2018-04-10T19:02:24.463Z,6.27
2018-04-10T19:04:51.947Z,6.55
2018-04-10T19:07:20.370Z,5.87
2018-04-10T19:09:47.887Z,5.94
2018-04-10T19:12:15.326Z,6.04
2018-04-10T19:14:42.819Z,5.73
2018-04-10T19:17:10.320Z,5.51
2018-04-10T19:19:37.767Z,5.35
2018-04-10T19:22:07.179Z,5.33
2018-04-10T19:24:35.609Z,5.45
2018-04-10T19:27:03.112Z,5.38
2018-04-10T19:29:30.681Z,5.40
2018-04-10T19:31:58.162Z,5.40
2018-04-10T19:34:25.620Z,5.45
2018-04-10T19:36:53.172Z,5.44
2018-04-10T19:39:20.624Z,5.38
2018-04-10T19:41:50.126Z,5.41
2018-04-10T19:44:17.563Z,5.29
2018-04-10T19:46:45.040Z,5.35
2018-04-10T19:49:12.499Z,5.44
2018-04-10T19:51:39.979Z,5.38
2018-04-10T19:54:07.436Z,5.41
2018-04-10T19:56:35.040Z,5.39
2018-04-10T19:59:02.492Z,5.49
2018-04-10T20:01:29.967Z,5.42
2018-04-10T20:03:57.417Z,5.58
2018-04-10T20:06:25.193Z,5.43
2018-04-10T20:08:52.767Z,5.48
2018-04-10T20:11:20.311Z,5.37
2018-04-10T20:13:47.773Z,5.45
2018-04-10T20:16:15.223Z,5.54
2018-04-10T20:18:42.736Z,5.53
2018-04-10T20:21:10.191Z,5.47
2018-04-10T20:23:37.668Z,5.53
2018-04-10T20:26:05.129Z,5.44
2018-04-10T20:28:32.695Z,5.47
2018-04-10T20:31:00.173Z,5.49
2018-04-10T20:33:27.661Z,5.44
2018-04-10T20:35:55.107Z,5.40
2018-04-10T20:38:22.635Z,5.44
2018-04-10T20:40:51.074Z,5.47
2018-04-10T20:43:19.685Z,5.54
2018-04-10T20:45:47.130Z,5.46
2018-04-10T20:48:14.614Z,5.40
2018-04-10T20:50:42.059Z,5.46
2018-04-10T20:53:09.739Z,5.42
2018-04-10T20:55:37.199Z,5.54
2018-04-10T20:58:04.753Z,5.64
2018-04-10T21:00:32.304Z,5.51
2018-04-10T21:02:59.760Z,5.48
2018-04-10T21:05:27.281Z,5.37
2018-04-10T21:07:54.759Z,5.52
2018-04-10T21:10:22.243Z,5.52
2018-04-10T21:12:49.787Z,5.45
2018-04-10T21:15:17.267Z,5.55
2018-04-10T21:17:44.751Z,5.60
2018-04-10T21:20:12.234Z,5.56
2018-04-10T21:22:39.684Z,5.48
2018-04-10T21:25:08.119Z,5.36
2018-04-10T21:27:35.575Z,5.39
2018-04-10T21:30:03.063Z,5.39
2018-04-10T21:32:30.583Z,5.31
2018-04-10T21:34:58.060Z,5.41
2018-04-10T21:37:25.511Z,5.36
2018-04-10T21:39:52.999Z,5.25
2018-04-10T21:42:20.439Z,5.28
2018-04-10T21:44:47.895Z,5.42
2018-04-10T21:47:15.404Z,5.41
2018-04-10T21:49:42.860Z,5.48
2018-04-10T21:52:10.443Z,5.40
2018-04-10T21:54:37.905Z,5.52
2018-04-10T21:57:05.383Z,5.36
2018-04-10T21:59:32.844Z,5.48
2018-04-10T22:02:00.319Z,5.39
2018-04-10T22:04:27.764Z,5.37
2018-04-10T22:06:55.235Z,5.49
2018-04-10T22:09:22.767Z,5.43
2018-04-10T22:11:50.235Z,5.50
2018-04-10T22:14:17.694Z,5.39
2018-04-10T22:16:45.187Z,5.35
2018-04-10T22:19:12.645Z,5.39
2018-04-10T22:21:40.119Z,5.46
2018-04-10T22:24:07.563Z,5.42
2018-04-10T22:26:35.328Z,5.36
2018-04-10T22:29:02.817Z,5.40
2018-04-10T22:31:30.295Z,5.41
2018-04-10T22:33:57.749Z,5.40
2018-04-10T22:36:26.175Z,5.36
2018-04-10T22:38:53.673Z,5.43
2018-04-10T22:41:21.321Z,5.37
2018-04-10T22:43:48.801Z,5.43
2018-04-10T22:46:16.252Z,5.34
2018-04-10T22:48:43.736Z,5.30
2018-04-10T22:51:11.193Z,5.35
2018-04-10T22:53:38.667Z,5.38
2018-04-10T22:56:07.020Z,5.30
2018-04-10T22:58:34.480Z,5.39
2018-04-10T23:01:01.991Z,5.41
2018-04-10T23:03:29.470Z,5.31
2018-04-10T23:05:57.020Z,5.43
2018-04-10T23:08:24.484Z,5.35
2018-04-10T23:10:51.973Z,5.28
2018-04-10T23:13:19.420Z,5.30
2018-04-10T23:15:46.899Z,5.28
2018-04-10T23:18:14.387Z,5.35
2018-04-10T23:20:41.886Z,5.32
2018-04-10T23:34:32.196Z,5.28
2018-04-10T23:36:59.674Z,5.32
2018-04-10T23:39:27.129Z,5.28
2018-04-10T23:41:54.603Z,5.30
2018-04-10T23:44:22.048Z,5.23
2018-04-10T23:46:49.540Z,5.24
2018-04-10T23:49:16.992Z,5.20
2018-04-10T23:51:44.435Z,5.25
2018-04-10T23:54:11.912Z,5.15
2018-04-10T23:56:39.360Z,5.29
2018-04-10T23:59:06.839Z,5.18
